Time;durP1;ratioP1;P1;durP2;ratioP2;P2;SDS_P1;SDS_P2;PMS_P1;PMS_P2;Temp;Humidity;BMP_temperature;BMP_pressure;BME280_temperature;BME280_humidity;BME280_pressure;Samples;Min_cycle;Max_cycle;Signal;HPM_P1;HPM_P2
2022/05/06 00:01:37;;;;;;;;;;;10.90;99.90;;;;;;5074083;27;35968;-60
2022/05/06 00:04:05;;;;;;;;;;;10.90;99.90;;;;;;5077434;27;40363;-60
2022/05/06 00:06:32;;;;;;;;;;;10.80;99.90;;;;;;5076273;27;39624;-60
2022/05/06 00:08:59;;;;;;;;;;;10.80;99.90;;;;;;5075973;27;36392;-60
2022/05/06 00:11:29;;;;;;;;;;;10.80;99.90;;;;;;5074492;27;37110;-60
2022/05/06 00:13:56;;;;;;;;;;;10.70;99.90;;;;;;5077981;27;36328;-60
2022/05/06 00:16:24;;;;;;;;;;;10.70;99.90;;;;;;5076816;27;38193;-60
2022/05/06 00:18:52;;;;;;;;;;;10.60;99.90;;;;;;5076468;27;38325;-60
2022/05/06 00:21:19;;;;;;;;;;;10.50;99.90;;;;;;5075389;27;35877;-60
2022/05/06 00:23:46;;;;;;;;;;;10.50;99.90;;;;;;5075787;27;35993;-56
2022/05/06 00:26:14;;;;;;;;;;;10.40;99.90;;;;;;5075937;27;38928;-56
2022/05/06 00:28:43;;;;;;;;;;;10.50;99.90;;;;;;5075046;27;36778;-56
2022/05/06 00:31:10;;;;;;;;;;;10.50;99.90;;;;;;5074976;27;37395;-56
2022/05/06 00:33:37;;;;;;;;;;;10.50;99.90;;;;;;5074773;27;36205;-56
2022/05/06 00:36:05;;;;;;;;;;;10.50;99.90;;;;;;5074702;27;39798;-56
2022/05/06 00:38:33;;;;;;;;;;;10.40;99.90;;;;;;5076214;27;36765;-55
2022/05/06 00:41:00;;;;;;;;;;;10.40;99.90;;;;;;5073832;27;37578;-56
2022/05/06 00:43:27;;;;;;;;;;;10.30;99.90;;;;;;5075741;27;37951;-56
2022/05/06 00:45:57;;;;;;;;;;;10.30;99.90;;;;;;5074803;27;37532;-56
2022/05/06 00:48:25;;;;;;;;;;;10.30;99.90;;;;;;5075947;27;38197;-56
2022/05/06 00:50:53;;;;;;;;;;;10.20;99.90;;;;;;5074989;27;37092;-60
2022/05/06 00:53:20;;;;;;;;;;;10.30;99.90;;;;;;5076225;27;35083;-60
2022/05/06 00:55:49;;;;;;;;;;;10.30;99.90;;;;;;5073956;27;38871;-60
2022/05/06 00:58:16;;;;;;;;;;;10.20;99.90;;;;;;5075951;27;38054;-60
2022/05/06 01:00:44;;;;;;;;;;;10.20;99.90;;;;;;5075642;27;37533;-60
2022/05/06 01:03:13;;;;;;;;;;;10.10;99.90;;;;;;5076278;27;36185;-60
2022/05/06 01:05:40;;;;;;;;;;;10.10;99.90;;;;;;5075764;27;37505;-60
2022/05/06 01:08:11;;;;;;;;;;;10.10;99.90;;;;;;5075846;27;37965;-60
2022/05/06 01:10:38;;;;;;;;;;;10.10;99.90;;;;;;5073853;27;40223;-56
2022/05/06 01:13:06;;;;;;;;;;;10.10;99.90;;;;;;5074459;27;36402;-56
2022/05/06 01:15:33;;;;;;;;;;;10.10;99.90;;;;;;5074145;27;37698;-56
2022/05/06 01:18:00;;;;;;;;;;;10.00;99.90;;;;;;5076140;27;38137;-56
2022/05/06 01:20:29;;;;;;;;;;;10.00;99.90;;;;;;5075630;27;37218;-56
2022/05/06 01:22:59;;;;;;;;;;;10.00;99.90;;;;;;5075706;27;35320;-56
2022/05/06 01:25:27;;;;;;;;;;;10.00;99.90;;;;;;5074740;27;37759;-56
2022/05/06 01:27:56;;;;;;;;;;;9.90;99.90;;;;;;5072755;27;38146;-56
2022/05/06 01:30:35;;;;;;;;;;;9.90;99.90;;;;;;5073473;27;37533;-56
2022/05/06 01:33:03;;;;;;;;;;;9.90;99.90;;;;;;5075811;27;36218;-56
2022/05/06 01:35:31;;;;;;;;;;;9.80;99.90;;;;;;5075668;27;40899;-56
2022/05/06 01:38:03;;;;;;;;;;;9.80;99.90;;;;;;5074873;27;39051;-56
2022/05/06 01:40:32;;;;;;;;;;;9.90;99.90;;;;;;5074158;27;36046;-56
2022/05/06 01:42:59;;;;;;;;;;;9.70;99.90;;;;;;5075988;27;36158;-56
2022/05/06 01:45:28;;;;;;;;;;;9.80;99.90;;;;;;5075023;27;37746;-56
2022/05/06 01:47:56;;;;;;;;;;;9.70;99.90;;;;;;5074389;27;39598;-56
2022/05/06 01:50:24;;;;;;;;;;;9.70;99.90;;;;;;5074190;27;36607;-56
2022/05/06 01:52:51;;;;;;;;;;;9.60;99.90;;;;;;5075349;27;36511;-56
2022/05/06 01:55:20;;;;;;;;;;;9.60;99.90;;;;;;5074913;27;39813;-56
2022/05/06 01:57:47;;;;;;;;;;;9.60;99.90;;;;;;5071355;27;36624;-56
2022/05/06 02:00:15;;;;;;;;;;;9.60;99.90;;;;;;5073521;27;38609;-56
2022/05/06 02:02:42;;;;;;;;;;;9.50;99.90;;;;;;5073402;27;36851;-56
2022/05/06 02:05:17;;;;;;;;;;;9.40;99.90;;;;;;5073045;27;38356;-56
2022/05/06 02:07:44;;;;;;;;;;;9.30;99.90;;;;;;5073881;27;38917;-56
2022/05/06 02:10:12;;;;;;;;;;;9.30;99.90;;;;;;5074664;27;37654;-55
2022/05/06 02:12:44;;;;;;;;;;;9.20;99.90;;;;;;5075181;27;29176;-60
2022/05/06 02:15:12;;;;;;;;;;;9.10;99.90;;;;;;5074808;27;37329;-60
2022/05/06 02:17:39;;;;;;;;;;;9.10;99.90;;;;;;5074282;27;37828;-60
2022/05/06 02:20:08;;;;;;;;;;;9.20;99.90;;;;;;5073784;27;35974;-60
2022/05/06 02:22:36;;;;;;;;;;;9.20;99.90;;;;;;5075444;27;36227;-60
2022/05/06 02:25:04;;;;;;;;;;;9.20;99.90;;;;;;5072582;27;37028;-60
2022/05/06 02:27:31;;;;;;;;;;;9.10;99.90;;;;;;5070923;27;37998;-60
2022/05/06 02:35:29;;;;;;;;;;;9.20;99.90;;;;;;5074534;27;39788;-56
2022/05/06 02:37:56;;;;;;;;;;;9.10;99.90;;;;;;5074642;27;38744;-56
2022/05/06 02:40:23;;;;;;;;;;;9.10;99.90;;;;;;5074697;27;38113;-55
2022/05/06 02:42:50;;;;;;;;;;;9.10;99.90;;;;;;5074094;27;35171;-56
2022/05/06 02:45:18;;;;;;;;;;;9.10;99.90;;;;;;5072887;27;37677;-56
2022/05/06 02:47:46;;;;;;;;;;;9.10;99.90;;;;;;5074081;27;37752;-56
2022/05/06 02:50:14;;;;;;;;;;;9.10;99.90;;;;;;5073763;27;39180;-60
2022/05/06 02:52:41;;;;;;;;;;;9.20;99.90;;;;;;5073792;27;34977;-60
2022/05/06 02:55:08;;;;;;;;;;;9.30;99.90;;;;;;5072782;27;37503;-60
2022/05/06 02:57:35;;;;;;;;;;;9.40;99.90;;;;;;5072935;27;36858;-60
2022/05/06 03:00:03;;;;;;;;;;;9.40;99.90;;;;;;5074260;27;37486;-60
2022/05/06 03:02:32;;;;;;;;;;;9.50;99.90;;;;;;5073151;27;36226;-56
2022/05/06 03:04:59;;;;;;;;;;;9.60;99.90;;;;;;5073043;27;37539;-56
2022/05/06 03:07:26;;;;;;;;;;;9.60;99.90;;;;;;5072487;27;38486;-56
2022/05/06 03:09:53;;;;;;;;;;;9.70;99.90;;;;;;5071222;27;37960;-56
2022/05/06 03:12:22;;;;;;;;;;;9.70;99.90;;;;;;5073125;27;37008;-56
2022/05/06 03:14:50;;;;;;;;;;;9.80;99.90;;;;;;5073813;27;39272;-56
2022/05/06 03:17:17;;;;;;;;;;;9.90;99.90;;;;;;5075132;27;37661;-56
2022/05/06 03:19:46;;;;;;;;;;;10.00;99.90;;;;;;5073825;27;37778;-56
2022/05/06 03:22:14;;;;;;;;;;;10.00;99.90;;;;;;5073312;27;35880;-59
2022/05/06 03:24:41;;;;;;;;;;;10.10;99.90;;;;;;5071381;27;39552;-60
2022/05/06 03:27:59;;;;;;;;;;;10.10;99.90;;;;;;5071856;27;39265;-60
2022/05/06 03:29:56;;;;;;;;;;;10.20;99.90;;;;;;5074031;27;37766;-56
2022/05/06 03:32:23;;;;;;;;;;;10.30;99.90;;;;;;5074787;27;37153;-56
2022/05/06 03:34:52;;;;;;;;;;;10.30;99.90;;;;;;5074055;27;37372;-56
2022/05/06 03:37:19;;;;;;;;;;;10.40;99.90;;;;;;5074315;27;37414;-56
2022/05/06 03:39:46;;;;;;;;;;;10.40;99.90;;;;;;5073528;27;37325;-56
2022/05/06 03:42:13;;;;;;;;;;;10.50;99.90;;;;;;5074832;27;36076;-56
2022/05/06 03:44:40;;;;;;;;;;;10.50;99.90;;;;;;5073380;27;38632;-56
2022/05/06 03:47:07;;;;;;;;;;;10.50;99.90;;;;;;5071687;27;38341;-56
2022/05/06 03:49:34;;;;;;;;;;;10.60;99.90;;;;;;5073764;27;37474;-56
2022/05/06 03:52:03;;;;;;;;;;;10.60;99.90;;;;;;5072089;27;36164;-56
2022/05/06 03:54:31;;;;;;;;;;;10.60;99.90;;;;;;5070160;27;36565;-60
2022/05/06 03:56:58;;;;;;;;;;;10.60;99.90;;;;;;5072870;27;37243;-60
2022/05/06 03:59:25;;;;;;;;;;;10.60;99.90;;;;;;5074990;27;37259;-60
2022/05/06 04:01:52;;;;;;;;;;;10.60;99.90;;;;;;5076438;27;37073;-55
2022/05/06 04:04:19;;;;;;;;;;;10.70;99.90;;;;;;5076197;27;38288;-56
2022/05/06 04:06:47;;;;;;;;;;;10.60;99.90;;;;;;5077915;27;37978;-56
2022/05/06 04:09:15;;;;;;;;;;;10.70;99.90;;;;;;5076240;27;37711;-56
2022/05/06 04:11:42;;;;;;;;;;;10.70;99.90;;;;;;5075937;27;35914;-56
2022/05/06 04:14:11;;;;;;;;;;;10.70;99.90;;;;;;5077865;27;37536;-56
2022/05/06 04:16:38;;;;;;;;;;;10.70;99.90;;;;;;5075893;27;36638;-56
2022/05/06 04:19:05;;;;;;;;;;;10.70;99.90;;;;;;5075743;27;38212;-56
2022/05/06 04:24:17;;;;;;;;;;;10.80;99.90;;;;;;5076223;27;38861;-56
2022/05/06 04:26:45;;;;;;;;;;;10.80;99.90;;;;;;5076277;27;38598;-56
2022/05/06 04:29:12;;;;;;;;;;;10.80;99.90;;;;;;5075528;27;38077;-56
2022/05/06 04:31:39;;;;;;;;;;;10.80;99.90;;;;;;5076304;27;38092;-56
2022/05/06 04:34:07;;;;;;;;;;;10.80;99.90;;;;;;5076581;27;38862;-56
2022/05/06 04:36:34;;;;;;;;;;;10.80;99.90;;;;;;5076148;27;37171;-56
2022/05/06 04:39:01;;;;;;;;;;;10.80;99.90;;;;;;5075750;27;38368;-56
2022/05/06 04:41:33;;;;;;;;;;;10.80;99.90;;;;;;5072380;27;36869;-56
2022/05/06 04:44:00;;;;;;;;;;;10.80;99.90;;;;;;5077906;27;38361;-56
2022/05/06 04:46:27;;;;;;;;;;;10.90;99.90;;;;;;5076415;27;38050;-56
2022/05/06 04:48:54;;;;;;;;;;;10.90;99.90;;;;;;5076717;27;36968;-56
2022/05/06 04:51:21;;;;;;;;;;;10.90;99.90;;;;;;5074644;27;35648;-56
2022/05/06 04:53:51;;;;;;;;;;;11.00;99.90;;;;;;5076680;27;38640;-56
2022/05/06 04:56:18;;;;;;;;;;;11.00;99.90;;;;;;5072929;27;38094;-56
2022/05/06 04:58:47;;;;;;;;;;;11.00;99.90;;;;;;5074775;27;36062;-56
2022/05/06 05:01:15;;;;;;;;;;;11.00;99.90;;;;;;5075639;27;36154;-56
2022/05/06 05:03:43;;;;;;;;;;;11.00;99.90;;;;;;5076147;27;37838;-56
2022/05/06 05:06:10;;;;;;;;;;;11.10;99.90;;;;;;5072968;27;36683;-56
2022/05/06 05:08:37;;;;;;;;;;;11.00;99.90;;;;;;5071732;27;37632;-56
2022/05/06 05:11:04;;;;;;;;;;;11.00;99.90;;;;;;5072800;27;36358;-56
2022/05/06 05:13:32;;;;;;;;;;;11.00;99.90;;;;;;5074769;27;38608;-56
2022/05/06 05:16:01;;;;;;;;;;;11.00;99.90;;;;;;5074003;27;38904;-56
2022/05/06 05:18:28;;;;;;;;;;;11.10;99.90;;;;;;5073203;27;37758;-56
2022/05/06 05:20:55;;;;;;;;;;;11.10;99.90;;;;;;5075929;27;38082;-60
2022/05/06 05:23:22;;;;;;;;;;;11.10;99.90;;;;;;5076160;27;38499;-61
2022/05/06 05:25:49;;;;;;;;;;;11.10;99.90;;;;;;5073498;27;40026;-61
2022/05/06 05:28:16;;;;;;;;;;;11.10;99.90;;;;;;5074278;27;37562;-61
2022/05/06 05:30:43;;;;;;;;;;;11.10;99.90;;;;;;5074374;27;36272;-61
2022/05/06 05:33:12;;;;;;;;;;;11.10;99.90;;;;;;5074941;27;37964;-61
2022/05/06 05:35:40;;;;;;;;;;;11.10;99.90;;;;;;5073951;27;38230;-61
2022/05/06 05:38:09;;;;;;;;;;;11.10;99.90;;;;;;5075476;27;38507;-61
2022/05/06 05:40:36;;;;;;;;;;;11.10;99.90;;;;;;5075500;27;36531;-61
2022/05/06 05:43:03;;;;;;;;;;;11.20;99.90;;;;;;5075928;27;38961;-56
2022/05/06 05:48:22;;;;;;;;;;;11.20;99.90;;;;;;5074304;27;38781;-56
2022/05/06 05:50:49;;;;;;;;;;;11.30;99.90;;;;;;5074808;27;36868;-56
2022/05/06 05:53:16;;;;;;;;;;;11.30;99.90;;;;;;5075871;27;37196;-56
2022/05/06 05:55:44;;;;;;;;;;;11.30;99.90;;;;;;5075158;27;38731;-56
2022/05/06 05:58:11;;;;;;;;;;;11.30;99.90;;;;;;5073969;27;36936;-56
2022/05/06 06:00:38;;;;;;;;;;;11.40;99.90;;;;;;5074835;27;36597;-56
2022/05/06 06:03:05;;;;;;;;;;;11.30;99.90;;;;;;5072805;27;36488;-56
2022/05/06 06:05:33;;;;;;;;;;;11.40;99.90;;;;;;5074566;27;39889;-56
2022/05/06 06:08:03;;;;;;;;;;;11.40;99.90;;;;;;5073266;27;37583;-56
2022/05/06 06:10:30;;;;;;;;;;;11.40;99.90;;;;;;5073074;27;36048;-56
2022/05/06 06:12:57;;;;;;;;;;;11.40;99.90;;;;;;5073759;27;37737;-56
2022/05/06 06:15:24;;;;;;;;;;;11.50;99.90;;;;;;5073733;27;37952;-61
2022/05/06 06:17:51;;;;;;;;;;;11.50;99.90;;;;;;5074064;27;38576;-61
2022/05/06 06:20:21;;;;;;;;;;;11.50;99.90;;;;;;5075299;27;37751;-61
2022/05/06 06:22:50;;;;;;;;;;;11.60;99.90;;;;;;5074604;27;38970;-61
2022/05/06 06:25:17;;;;;;;;;;;11.70;99.90;;;;;;5073101;27;39708;-56
2022/05/06 06:27:44;;;;;;;;;;;11.80;99.90;;;;;;5074398;27;35810;-56
2022/05/06 06:30:12;;;;;;;;;;;11.80;99.90;;;;;;5075377;27;36511;-56
2022/05/06 06:32:39;;;;;;;;;;;11.80;99.90;;;;;;5073227;27;39329;-56
2022/05/06 06:35:06;;;;;;;;;;;11.90;99.90;;;;;;5072401;27;38618;-56
2022/05/06 06:37:34;;;;;;;;;;;11.90;99.90;;;;;;5072846;27;37046;-61
2022/05/06 06:40:02;;;;;;;;;;;11.90;99.90;;;;;;5074181;27;36130;-61
2022/05/06 06:42:30;;;;;;;;;;;12.00;99.90;;;;;;5073418;27;36637;-61
2022/05/06 06:44:58;;;;;;;;;;;12.00;99.90;;;;;;5073319;27;37790;-56
2022/05/06 06:47:29;;;;;;;;;;;12.10;99.90;;;;;;5072204;27;37117;-56
2022/05/06 06:49:58;;;;;;;;;;;12.10;99.90;;;;;;5069753;27;36521;-56
2022/05/06 06:52:25;;;;;;;;;;;12.10;99.90;;;;;;5072110;27;37345;-56
2022/05/06 06:54:52;;;;;;;;;;;12.20;99.90;;;;;;5074333;27;38152;-58
2022/05/06 06:57:20;;;;;;;;;;;12.20;99.90;;;;;;5073749;27;38207;-56
2022/05/06 06:59:48;;;;;;;;;;;12.30;99.90;;;;;;5070302;27;36390;-56
2022/05/06 07:02:17;;;;;;;;;;;12.30;99.90;;;;;;5070291;27;37856;-56
2022/05/06 07:04:44;;;;;;;;;;;12.40;99.90;;;;;;5071266;27;38647;-56
2022/05/06 07:12:42;;;;;;;;;;;12.50;99.90;;;;;;5070669;27;41182;-56
2022/05/06 07:15:09;;;;;;;;;;;12.50;99.90;;;;;;5072206;27;37424;-56
2022/05/06 07:17:36;;;;;;;;;;;12.50;99.90;;;;;;5072107;27;37571;-56
2022/05/06 07:20:04;;;;;;;;;;;12.60;99.90;;;;;;5073243;27;35718;-56
2022/05/06 07:22:31;;;;;;;;;;;12.60;99.90;;;;;;5072455;27;37048;-56
2022/05/06 07:24:58;;;;;;;;;;;12.60;99.90;;;;;;5075285;27;38544;-56
2022/05/06 07:27:25;;;;;;;;;;;12.60;99.90;;;;;;5075051;27;36614;-56
2022/05/06 07:29:54;;;;;;;;;;;12.70;99.90;;;;;;5074485;27;36457;-56
2022/05/06 07:32:21;;;;;;;;;;;12.60;99.90;;;;;;5075078;27;37806;-61
2022/05/06 07:34:48;;;;;;;;;;;12.70;99.90;;;;;;5077781;27;39341;-61
2022/05/06 07:37:15;;;;;;;;;;;12.70;99.90;;;;;;5079209;27;36176;-61
2022/05/06 07:39:45;;;;;;;;;;;12.80;99.90;;;;;;5077798;27;35168;-61
2022/05/06 07:42:12;;;;;;;;;;;12.80;99.90;;;;;;5077940;27;39155;-61
2022/05/06 07:44:39;;;;;;;;;;;12.80;99.90;;;;;;5075759;27;38681;-60
2022/05/06 07:47:07;;;;;;;;;;;12.90;99.90;;;;;;5075741;27;39174;-61
2022/05/06 07:49:34;;;;;;;;;;;12.90;99.90;;;;;;5074601;27;36022;-56
2022/05/06 07:52:02;;;;;;;;;;;13.00;99.90;;;;;;5075721;27;36597;-56
2022/05/06 07:54:29;;;;;;;;;;;13.00;99.90;;;;;;5076898;27;38542;-56
2022/05/06 07:56:56;;;;;;;;;;;13.10;99.90;;;;;;5076196;27;36095;-56
2022/05/06 07:59:23;;;;;;;;;;;13.10;99.90;;;;;;5076188;27;36720;-56
2022/05/06 08:04:37;;;;;;;;;;;13.30;99.90;;;;;;5077835;27;39561;-56
2022/05/06 08:07:05;;;;;;;;;;;13.50;99.90;;;;;;5075927;27;37870;-56
2022/05/06 08:09:32;;;;;;;;;;;13.50;99.90;;;;;;5075946;27;36126;-56
2022/05/06 08:12:05;;;;;;;;;;;13.60;99.90;;;;;;5075927;27;38366;-56
2022/05/06 08:14:32;;;;;;;;;;;13.70;99.90;;;;;;5075802;27;38210;-56
2022/05/06 08:16:59;;;;;;;;;;;13.70;99.90;;;;;;5076794;27;38050;-56
2022/05/06 08:19:27;;;;;;;;;;;13.80;99.90;;;;;;5077086;27;38057;-56
2022/05/06 08:21:55;;;;;;;;;;;13.80;99.90;;;;;;5077181;27;37898;-56
2022/05/06 08:24:25;;;;;;;;;;;13.90;99.90;;;;;;5077951;27;38003;-56
2022/05/06 08:26:52;;;;;;;;;;;13.90;99.90;;;;;;5076887;27;40860;-56
2022/05/06 08:29:22;;;;;;;;;;;14.00;99.90;;;;;;5077032;27;35355;-61
2022/05/06 08:31:50;;;;;;;;;;;14.10;99.90;;;;;;5069470;27;38828;-56
2022/05/06 08:34:18;;;;;;;;;;;14.20;99.90;;;;;;5076260;27;39413;-56
2022/05/06 08:36:45;;;;;;;;;;;14.30;99.90;;;;;;5077526;27;38648;-61
2022/05/06 08:39:14;;;;;;;;;;;14.40;99.90;;;;;;5077118;27;37368;-61
2022/05/06 08:41:41;;;;;;;;;;;14.60;99.90;;;;;;5075243;27;38972;-61
2022/05/06 08:52:31;;;;;;;;;;;15.10;99.90;;;;;;5075970;27;39631;-61
2022/05/06 08:55:00;;;;;;;;;;;15.10;99.90;;;;;;5075209;27;37949;-61
2022/05/06 08:57:27;;;;;;;;;;;15.40;99.90;;;;;;5076939;27;37338;-56
2022/05/06 08:59:54;;;;;;;;;;;15.60;99.90;;;;;;5077250;27;36233;-56
2022/05/06 09:02:21;;;;;;;;;;;15.80;99.90;;;;;;5076122;27;39111;-56
2022/05/06 09:04:48;;;;;;;;;;;15.90;99.90;;;;;;5077205;27;38092;-56
2022/05/06 09:07:19;;;;;;;;;;;16.00;99.90;;;;;;5075739;27;36845;-56
2022/05/06 09:10:05;;;;;;;;;;;16.20;99.90;;;;;;5072983;27;39908;-56
2022/05/06 09:12:42;;;;;;;;;;;16.30;99.90;;;;;;5074757;27;39479;-56
2022/05/06 09:17:56;;;;;;;;;;;16.80;99.90;;;;;;5076275;27;40783;-53
2022/05/06 09:20:24;;;;;;;;;;;17.00;99.90;;;;;;5075472;27;35776;-61
2022/05/06 09:22:51;;;;;;;;;;;17.00;99.30;;;;;;5075042;27;37648;-61
2022/05/06 09:25:34;;;;;;;;;;;17.20;99.90;;;;;;5074958;27;38891;-61
2022/05/06 09:28:03;;;;;;;;;;;17.40;99.70;;;;;;5074646;27;35958;-61
2022/05/06 09:30:30;;;;;;;;;;;17.70;98.60;;;;;;5072139;27;36098;-61
2022/05/06 09:32:58;;;;;;;;;;;17.80;97.50;;;;;;5074773;27;38715;-61
2022/05/06 09:35:26;;;;;;;;;;;18.00;97.90;;;;;;5073672;27;39622;-61
2022/05/06 09:37:53;;;;;;;;;;;18.20;97.10;;;;;;5074405;27;38253;-56
2022/05/06 09:40:21;;;;;;;;;;;18.40;96.80;;;;;;5074155;27;35270;-56
2022/05/06 09:42:57;;;;;;;;;;;18.50;96.10;;;;;;5074546;27;38311;-56
2022/05/06 09:45:30;;;;;;;;;;;18.60;96.00;;;;;;5075045;27;37118;-56
2022/05/06 09:47:58;;;;;;;;;;;18.60;93.60;;;;;;5076067;27;37454;-56
2022/05/06 09:50:32;;;;;;;;;;;18.60;94.40;;;;;;5075111;27;36285;-56
2022/05/06 09:53:00;;;;;;;;;;;18.50;94.60;;;;;;5074328;27;38390;-56
2022/05/06 09:55:28;;;;;;;;;;;18.50;94.40;;;;;;5074951;27;38258;-56
2022/05/06 09:57:56;;;;;;;;;;;18.60;95.40;;;;;;5075464;27;37564;-56
2022/05/06 10:00:23;;;;;;;;;;;18.60;93.10;;;;;;5075632;27;35904;-56
2022/05/06 10:02:52;;;;;;;;;;;18.80;93.00;;;;;;5075746;27;37842;-56
2022/05/06 10:05:21;;;;;;;;;;;18.80;93.10;;;;;;5072304;27;39214;-56
2022/05/06 10:07:49;;;;;;;;;;;19.10;92.90;;;;;;5074341;27;37517;-56
2022/05/06 10:10:19;;;;;;;;;;;19.20;91.00;;;;;;5074046;27;36698;-56
2022/05/06 10:12:49;;;;;;;;;;;19.30;89.00;;;;;;5070119;27;37858;-56
2022/05/06 10:15:17;;;;;;;;;;;19.30;90.70;;;;;;5071903;27;39099;-56
2022/05/06 10:17:55;;;;;;;;;;;19.30;90.20;;;;;;5073956;27;38572;-56
2022/05/06 10:20:45;;;;;;;;;;;19.20;91.70;;;;;;5073633;27;36348;-56
2022/05/06 10:23:13;;;;;;;;;;;19.20;90.70;;;;;;5072579;27;37912;-61
2022/05/06 10:25:49;;;;;;;;;;;19.20;91.90;;;;;;5073801;27;39666;-62
2022/05/06 10:34:24;;;;;;;;;;;19.40;90.40;;;;;;5074026;27;40171;-61
2022/05/06 10:36:51;;;;;;;;;;;19.40;90.90;;;;;;5074532;27;39091;-62
2022/05/06 10:39:19;;;;;;;;;;;19.50;90.80;;;;;;5074669;27;38253;-62
2022/05/06 10:41:59;;;;;;;;;;;19.70;87.90;;;;;;5074979;27;35065;-62
2022/05/06 10:44:34;;;;;;;;;;;19.70;86.10;;;;;;5074682;27;36491;-61
2022/05/06 10:47:01;;;;;;;;;;;19.80;87.40;;;;;;5074002;27;37726;-61
2022/05/06 10:49:51;;;;;;;;;;;19.80;86.10;;;;;;5072611;27;37779;-61
2022/05/06 10:52:36;;;;;;;;;;;19.80;84.50;;;;;;5073611;27;36056;-56
2022/05/06 10:55:06;;;;;;;;;;;19.90;83.80;;;;;;5072426;27;37610;-56
2022/05/06 10:57:34;;;;;;;;;;;19.90;80.60;;;;;;5073295;27;38107;-56
2022/05/06 11:00:04;;;;;;;;;;;19.90;82.10;;;;;;5072734;27;38624;-56
2022/05/06 11:02:32;;;;;;;;;;;19.90;82.00;;;;;;5071679;27;35249;-56
2022/05/06 11:05:00;;;;;;;;;;;19.90;83.60;;;;;;5073355;27;36606;-56
2022/05/06 11:07:28;;;;;;;;;;;19.90;83.50;;;;;;5075498;27;38078;-56
2022/05/06 11:09:56;;;;;;;;;;;19.90;82.60;;;;;;5077131;27;37223;-62
2022/05/06 11:12:31;;;;;;;;;;;19.90;81.50;;;;;;5077002;27;36732;-62
2022/05/06 11:14:58;;;;;;;;;;;20.00;85.70;;;;;;5076047;27;39139;-62
2022/05/06 11:17:25;;;;;;;;;;;20.10;84.80;;;;;;5074342;27;39841;-56
2022/05/06 11:19:52;;;;;;;;;;;20.30;81.90;;;;;;5075455;27;37949;-56
2022/05/06 11:22:20;;;;;;;;;;;20.50;78.80;;;;;;5076166;27;34890;-56
2022/05/06 11:24:47;;;;;;;;;;;20.60;77.90;;;;;;5075182;27;38585;-56
2022/05/06 11:27:15;;;;;;;;;;;20.70;79.10;;;;;;5075572;27;38160;-55
2022/05/06 11:29:48;;;;;;;;;;;20.70;80.60;;;;;;5077452;27;35877;-56
2022/05/06 11:32:16;;;;;;;;;;;20.70;78.50;;;;;;5077593;27;36155;-56
2022/05/06 11:34:47;;;;;;;;;;;20.70;80.30;;;;;;5078077;27;38615;-56
2022/05/06 11:37:20;;;;;;;;;;;20.80;81.20;;;;;;5076969;27;39352;-56
2022/05/06 11:39:48;;;;;;;;;;;20.80;79.00;;;;;;5077529;27;37267;-56
2022/05/06 11:42:22;;;;;;;;;;;20.70;79.40;;;;;;5076152;27;36500;-56
2022/05/06 11:47:44;;;;;;;;;;;20.80;81.40;;;;;;5078761;27;40718;-56
2022/05/06 11:50:11;;;;;;;;;;;20.80;79.70;;;;;;5076669;27;37437;-56
2022/05/06 11:52:39;;;;;;;;;;;20.80;79.40;;;;;;5077479;27;35933;-56
2022/05/06 11:55:06;;;;;;;;;;;20.70;82.10;;;;;;5078720;27;36533;-56
2022/05/06 11:57:35;;;;;;;;;;;20.80;80.90;;;;;;5077826;27;37806;-56
2022/05/06 12:00:04;;;;;;;;;;;20.60;79.60;;;;;;5077327;27;37064;-56
2022/05/06 12:02:31;;;;;;;;;;;20.30;78.50;;;;;;5078156;27;35885;-56
2022/05/06 12:04:58;;;;;;;;;;;20.10;82.20;;;;;;5078927;27;38392;-56
2022/05/06 12:07:40;;;;;;;;;;;20.10;84.10;;;;;;5075195;27;39644;-56
2022/05/06 12:10:08;;;;;;;;;;;20.10;83.10;;;;;;5076564;27;38728;-56
2022/05/06 12:12:35;;;;;;;;;;;20.10;83.40;;;;;;5076710;27;38726;-56
2022/05/06 12:15:11;;;;;;;;;;;20.10;84.80;;;;;;5077010;27;39942;-56
2022/05/06 12:17:39;;;;;;;;;;;20.10;85.10;;;;;;5078176;27;38005;-56
2022/05/06 12:20:06;;;;;;;;;;;20.10;85.50;;;;;;5074461;27;36933;-62
2022/05/06 12:22:33;;;;;;;;;;;20.20;86.60;;;;;;5076942;27;37201;-61
2022/05/06 12:25:00;;;;;;;;;;;20.20;86.90;;;;;;5075391;27;39316;-61
2022/05/06 12:27:28;;;;;;;;;;;20.30;88.10;;;;;;5076760;27;37933;-62
2022/05/06 12:29:55;;;;;;;;;;;20.30;86.80;;;;;;5078252;27;37062;-62
2022/05/06 12:32:24;;;;;;;;;;;20.20;85.70;;;;;;5074567;27;35142;-62
2022/05/06 12:35:02;;;;;;;;;;;20.20;87.70;;;;;;5073613;27;37628;-61
2022/05/06 12:37:29;;;;;;;;;;;20.20;88.80;;;;;;5077848;27;36633;-62
2022/05/06 12:39:59;;;;;;;;;;;20.20;87.10;;;;;;5077032;27;38663;-56
2022/05/06 12:42:29;;;;;;;;;;;20.10;86.50;;;;;;5075119;27;36089;-56
2022/05/06 12:45:03;;;;;;;;;;;20.00;87.60;;;;;;5076070;27;37612;-56
2022/05/06 12:50:16;;;;;;;;;;;19.80;87.20;;;;;;5076081;27;39450;-62
2022/05/06 12:52:43;;;;;;;;;;;19.70;88.10;;;;;;5076638;27;36086;-61
2022/05/06 12:55:10;;;;;;;;;;;19.70;88.00;;;;;;5075445;27;37969;-56
2022/05/06 12:57:37;;;;;;;;;;;19.80;89.40;;;;;;5077566;27;38243;-56
2022/05/06 13:00:05;;;;;;;;;;;19.80;87.60;;;;;;5078404;27;37976;-56
2022/05/06 13:02:33;;;;;;;;;;;19.90;90.10;;;;;;5075695;27;35532;-56
2022/05/06 13:05:00;;;;;;;;;;;20.00;88.70;;;;;;5075839;27;37514;-56
2022/05/06 13:07:27;;;;;;;;;;;20.10;89.20;;;;;;5075186;27;37878;-57
2022/05/06 13:09:54;;;;;;;;;;;20.10;87.70;;;;;;5074900;27;37916;-56
2022/05/06 13:12:26;;;;;;;;;;;20.10;86.70;;;;;;5073838;27;37157;-56
2022/05/06 13:14:53;;;;;;;;;;;20.00;86.30;;;;;;5074870;27;37965;-56
2022/05/06 13:17:21;;;;;;;;;;;19.90;87.60;;;;;;5076305;27;38094;-56
2022/05/06 13:19:51;;;;;;;;;;;19.70;87.30;;;;;;5072596;27;36779;-56
2022/05/06 13:22:19;;;;;;;;;;;19.60;88.10;;;;;;5074260;27;35551;-56
2022/05/06 13:24:48;;;;;;;;;;;19.50;89.20;;;;;;5074974;27;40321;-57
2022/05/06 13:27:15;;;;;;;;;;;19.50;89.60;;;;;;5074761;27;38121;-56
2022/05/06 13:29:42;;;;;;;;;;;19.50;90.00;;;;;;5074659;27;37006;-56
2022/05/06 13:32:09;;;;;;;;;;;19.50;90.20;;;;;;5075391;27;37035;-56
2022/05/06 13:34:39;;;;;;;;;;;19.50;90.10;;;;;;5074630;27;37698;-62
2022/05/06 13:37:08;;;;;;;;;;;19.40;89.00;;;;;;5076130;27;38082;-62
2022/05/06 13:39:35;;;;;;;;;;;19.40;88.60;;;;;;5075578;27;38104;-62
2022/05/06 13:42:03;;;;;;;;;;;19.30;88.60;;;;;;5075284;27;36522;-62
2022/05/06 13:44:30;;;;;;;;;;;19.30;88.20;;;;;;5074350;27;39220;-62
2022/05/06 13:46:57;;;;;;;;;;;19.30;88.70;;;;;;5076128;27;38089;-62
2022/05/06 13:49:24;;;;;;;;;;;19.40;88.80;;;;;;5075302;27;38123;-62
2022/05/06 13:51:52;;;;;;;;;;;19.50;88.30;;;;;;5075604;27;36550;-62
2022/05/06 13:54:20;;;;;;;;;;;19.50;87.00;;;;;;5075995;27;38411;-62
2022/05/06 13:59:38;;;;;;;;;;;19.40;86.90;;;;;;5076100;27;39844;-62
2022/05/06 14:02:05;;;;;;;;;;;19.40;86.60;;;;;;5075048;27;37709;-62
2022/05/06 14:04:32;;;;;;;;;;;19.30;88.10;;;;;;5074046;27;37301;-62
2022/05/06 14:06:59;;;;;;;;;;;19.30;88.80;;;;;;5075362;27;39235;-63
2022/05/06 14:09:28;;;;;;;;;;;19.20;88.50;;;;;;5074751;27;36857;-62
2022/05/06 14:11:55;;;;;;;;;;;19.20;88.50;;;;;;5074291;27;37262;-62
2022/05/06 14:14:25;;;;;;;;;;;19.20;89.10;;;;;;5075769;27;38007;-56
2022/05/06 14:16:52;;;;;;;;;;;19.10;90.00;;;;;;5075123;27;37572;-56
2022/05/06 14:19:19;;;;;;;;;;;19.10;90.30;;;;;;5073187;27;38425;-56
2022/05/06 14:21:48;;;;;;;;;;;19.00;90.30;;;;;;5075398;27;35094;-56
2022/05/06 14:24:15;;;;;;;;;;;19.00;90.20;;;;;;5075311;27;37899;-56
2022/05/06 14:26:46;;;;;;;;;;;19.00;90.40;;;;;;5076033;27;39207;-56
2022/05/06 14:29:16;;;;;;;;;;;19.00;90.30;;;;;;5075997;27;37867;-57
2022/05/06 14:31:43;;;;;;;;;;;19.00;90.40;;;;;;5074902;27;35133;-56
2022/05/06 14:34:10;;;;;;;;;;;19.00;90.80;;;;;;5072691;27;37605;-56
2022/05/06 14:36:37;;;;;;;;;;;19.10;91.10;;;;;;5075280;27;38260;-56
2022/05/06 14:39:04;;;;;;;;;;;19.20;90.30;;;;;;5074943;27;37478;-56
2022/05/06 14:41:32;;;;;;;;;;;19.30;90.00;;;;;;5073126;27;36323;-56
2022/05/06 14:44:01;;;;;;;;;;;19.30;90.00;;;;;;5073953;27;37627;-56
2022/05/06 14:46:31;;;;;;;;;;;19.30;90.70;;;;;;5074971;27;37928;-56
2022/05/06 14:48:58;;;;;;;;;;;19.40;90.50;;;;;;5075732;27;37642;-56
2022/05/06 14:51:26;;;;;;;;;;;19.40;90.20;;;;;;5075603;27;35231;-57
2022/05/06 14:53:53;;;;;;;;;;;19.40;89.10;;;;;;5074824;27;38025;-56
2022/05/06 14:56:21;;;;;;;;;;;19.40;88.20;;;;;;5073955;27;37822;-57
2022/05/06 14:58:48;;;;;;;;;;;19.30;89.40;;;;;;5073701;27;37393;-56
2022/05/06 15:01:17;;;;;;;;;;;19.30;90.10;;;;;;5075352;27;35884;-56
2022/05/06 15:03:44;;;;;;;;;;;19.40;90.30;;;;;;5073420;27;38265;-56
2022/05/06 15:06:11;;;;;;;;;;;19.40;90.20;;;;;;5075206;27;38691;-57
2022/05/06 15:08:40;;;;;;;;;;;19.40;88.70;;;;;;5074572;27;35891;-57
2022/05/06 15:11:10;;;;;;;;;;;19.40;89.40;;;;;;5073395;27;36291;-56